sensor_id;sensor_type;location;lat;lon;timestamp;P1;durP1;ratioP1;P2;durP2;ratioP2
53931;SDS011;39844;52.496;13.482;2023-06-22T00:01:55;5.65;;;5.00;;
53931;SDS011;39844;52.496;13.482;2023-06-22T00:04:20;7.05;;;5.40;;
53931;SDS011;39844;52.496;13.482;2023-06-22T00:06:45;5.93;;;5.43;;
53931;SDS011;39844;52.496;13.482;2023-06-22T00:09:11;5.30;;;4.78;;
53931;SDS011;39844;52.496;13.482;2023-06-22T00:11:36;7.43;;;5.10;;
53931;SDS011;39844;52.496;13.482;2023-06-22T00:14:03;5.47;;;4.97;;
53931;SDS011;39844;52.496;13.482;2023-06-22T00:16:28;6.03;;;5.43;;
53931;SDS011;39844;52.496;13.482;2023-06-22T00:18:54;5.53;;;4.93;;
53931;SDS011;39844;52.496;13.482;2023-06-22T00:21:19;7.70;;;5.00;;
53931;SDS011;39844;52.496;13.482;2023-06-22T00:23:44;6.05;;;4.72;;
53931;SDS011;39844;52.496;13.482;2023-06-22T00:26:10;8.65;;;5.18;;
53931;SDS011;39844;52.496;13.482;2023-06-22T00:28:35;6.60;;;5.80;;
53931;SDS011;39844;52.496;13.482;2023-06-22T00:31:00;9.50;;;5.68;;
53931;SDS011;39844;52.496;13.482;2023-06-22T00:33:26;6.30;;;5.68;;
53931;SDS011;39844;52.496;13.482;2023-06-22T00:35:51;6.82;;;5.50;;
53931;SDS011;39844;52.496;13.482;2023-06-22T00:38:17;9.02;;;6.00;;
53931;SDS011;39844;52.496;13.482;2023-06-22T00:40:42;10.38;;;5.80;;
53931;SDS011;39844;52.496;13.482;2023-06-22T00:43:07;7.10;;;5.63;;
53931;SDS011;39844;52.496;13.482;2023-06-22T00:45:33;5.47;;;4.97;;
53931;SDS011;39844;52.496;13.482;2023-06-22T00:47:58;5.57;;;5.05;;
53931;SDS011;39844;52.496;13.482;2023-06-22T00:50:28;6.93;;;5.80;;
53931;SDS011;39844;52.496;13.482;2023-06-22T00:52:56;7.82;;;5.90;;
53931;SDS011;39844;52.496;13.482;2023-06-22T00:55:22;6.70;;;5.57;;
53931;SDS011;39844;52.496;13.482;2023-06-22T00:57:48;5.55;;;4.93;;
53931;SDS011;39844;52.496;13.482;2023-06-22T01:00:14;6.22;;;5.40;;
53931;SDS011;39844;52.496;13.482;2023-06-22T01:02:40;6.55;;;5.82;;
53931;SDS011;39844;52.496;13.482;2023-06-22T01:05:05;12.60;;;6.85;;
53931;SDS011;39844;52.496;13.482;2023-06-22T01:07:35;7.95;;;5.88;;
53931;SDS011;39844;52.496;13.482;2023-06-22T01:13:14;7.55;;;5.75;;
53931;SDS011;39844;52.496;13.482;2023-06-22T01:15:45;7.90;;;6.00;;
53931;SDS011;39844;52.496;13.482;2023-06-22T01:18:17;7.82;;;6.25;;
53931;SDS011;39844;52.496;13.482;2023-06-22T01:20:44;7.57;;;6.13;;
53931;SDS011;39844;52.496;13.482;2023-06-22T01:23:23;6.00;;;5.40;;
53931;SDS011;39844;52.496;13.482;2023-06-22T01:28:42;8.15;;;6.20;;
53931;SDS011;39844;52.496;13.482;2023-06-22T01:31:11;8.40;;;6.38;;
53931;SDS011;39844;52.496;13.482;2023-06-22T01:33:39;8.77;;;6.30;;
53931;SDS011;39844;52.496;13.482;2023-06-22T01:36:07;6.55;;;5.90;;
53931;SDS011;39844;52.496;13.482;2023-06-22T01:38:34;6.50;;;5.50;;
53931;SDS011;39844;52.496;13.482;2023-06-22T01:41:02;6.70;;;6.03;;
53931;SDS011;39844;52.496;13.482;2023-06-22T01:43:28;5.90;;;5.40;;
53931;SDS011;39844;52.496;13.482;2023-06-22T01:45:54;7.10;;;6.18;;
53931;SDS011;39844;52.496;13.482;2023-06-22T01:48:21;6.88;;;6.15;;
53931;SDS011;39844;52.496;13.482;2023-06-22T01:50:47;7.65;;;6.25;;
53931;SDS011;39844;52.496;13.482;2023-06-22T01:53:12;6.75;;;6.05;;
53931;SDS011;39844;52.496;13.482;2023-06-22T01:55:37;10.90;;;6.22;;
53931;SDS011;39844;52.496;13.482;2023-06-22T01:58:03;8.15;;;6.60;;
53931;SDS011;39844;52.496;13.482;2023-06-22T02:00:28;8.98;;;6.45;;
53931;SDS011;39844;52.496;13.482;2023-06-22T02:03:03;10.57;;;6.72;;
53931;SDS011;39844;52.496;13.482;2023-06-22T02:05:37;8.48;;;6.50;;
53931;SDS011;39844;52.496;13.482;2023-06-22T02:08:41;7.70;;;6.38;;
53931;SDS011;39844;52.496;13.482;2023-06-22T02:11:05;9.57;;;6.97;;
53931;SDS011;39844;52.496;13.482;2023-06-22T02:13:31;8.88;;;6.90;;
53931;SDS011;39844;52.496;13.482;2023-06-22T02:15:57;7.65;;;6.13;;
53931;SDS011;39844;52.496;13.482;2023-06-22T02:18:23;7.18;;;6.47;;
53931;SDS011;39844;52.496;13.482;2023-06-22T02:20:48;8.75;;;6.80;;
53931;SDS011;39844;52.496;13.482;2023-06-22T02:23:13;11.10;;;6.13;;
53931;SDS011;39844;52.496;13.482;2023-06-22T02:25:39;9.45;;;6.72;;
53931;SDS011;39844;52.496;13.482;2023-06-22T02:28:04;11.85;;;7.28;;
53931;SDS011;39844;52.496;13.482;2023-06-22T02:30:29;8.32;;;6.50;;
53931;SDS011;39844;52.496;13.482;2023-06-22T02:32:55;7.80;;;6.60;;
53931;SDS011;39844;52.496;13.482;2023-06-22T02:35:20;6.45;;;5.85;;
53931;SDS011;39844;52.496;13.482;2023-06-22T02:37:45;7.57;;;6.75;;
53931;SDS011;39844;52.496;13.482;2023-06-22T02:40:11;9.65;;;6.80;;
53931;SDS011;39844;52.496;13.482;2023-06-22T02:42:36;7.75;;;6.88;;
53931;SDS011;39844;52.496;13.482;2023-06-22T02:45:02;10.15;;;6.50;;
53931;SDS011;39844;52.496;13.482;2023-06-22T02:47:28;7.97;;;6.22;;
53931;SDS011;39844;52.496;13.482;2023-06-22T02:49:54;9.05;;;7.13;;
53931;SDS011;39844;52.496;13.482;2023-06-22T02:52:19;10.07;;;7.00;;
53931;SDS011;39844;52.496;13.482;2023-06-22T02:54:44;8.32;;;6.20;;
53931;SDS011;39844;52.496;13.482;2023-06-22T02:57:09;8.38;;;6.13;;
53931;SDS011;39844;52.496;13.482;2023-06-22T02:59:35;8.50;;;6.30;;
53931;SDS011;39844;52.496;13.482;2023-06-22T03:02:01;7.82;;;6.05;;
53931;SDS011;39844;52.496;13.482;2023-06-22T03:04:26;8.90;;;6.70;;
53931;SDS011;39844;52.496;13.482;2023-06-22T03:06:51;6.43;;;5.77;;
53931;SDS011;39844;52.496;13.482;2023-06-22T03:09:17;7.90;;;6.45;;
53931;SDS011;39844;52.496;13.482;2023-06-22T03:11:42;11.38;;;6.03;;
53931;SDS011;39844;52.496;13.482;2023-06-22T03:14:07;7.43;;;5.87;;
53931;SDS011;39844;52.496;13.482;2023-06-22T03:16:33;7.65;;;6.18;;
53931;SDS011;39844;52.496;13.482;2023-06-22T03:18:58;8.33;;;5.97;;
53931;SDS011;39844;52.496;13.482;2023-06-22T03:21:24;8.88;;;6.10;;
53931;SDS011;39844;52.496;13.482;2023-06-22T03:23:52;5.93;;;5.33;;
53931;SDS011;39844;52.496;13.482;2023-06-22T03:26:17;6.33;;;5.73;;
53931;SDS011;39844;52.496;13.482;2023-06-22T03:28:43;6.70;;;5.47;;
53931;SDS011;39844;52.496;13.482;2023-06-22T03:31:08;8.20;;;5.72;;
53931;SDS011;39844;52.496;13.482;2023-06-22T03:33:34;6.07;;;5.47;;
53931;SDS011;39844;52.496;13.482;2023-06-22T03:35:59;5.93;;;5.20;;
53931;SDS011;39844;52.496;13.482;2023-06-22T03:38:24;6.90;;;5.33;;
53931;SDS011;39844;52.496;13.482;2023-06-22T03:40:50;6.27;;;5.13;;
53931;SDS011;39844;52.496;13.482;2023-06-22T03:43:15;7.37;;;4.37;;
53931;SDS011;39844;52.496;13.482;2023-06-22T03:45:40;5.45;;;4.45;;
53931;SDS011;39844;52.496;13.482;2023-06-22T03:48:06;4.82;;;4.32;;
53931;SDS011;39844;52.496;13.482;2023-06-22T03:50:31;9.90;;;4.82;;
53931;SDS011;39844;52.496;13.482;2023-06-22T03:52:56;5.25;;;4.72;;
53931;SDS011;39844;52.496;13.482;2023-06-22T03:55:22;5.63;;;4.30;;
53931;SDS011;39844;52.496;13.482;2023-06-22T03:57:47;4.68;;;4.25;;
53931;SDS011;39844;52.496;13.482;2023-06-22T04:00:12;5.43;;;4.60;;
53931;SDS011;39844;52.496;13.482;2023-06-22T04:02:38;6.63;;;4.32;;
53931;SDS011;39844;52.496;13.482;2023-06-22T04:05:04;5.38;;;4.63;;
53931;SDS011;39844;52.496;13.482;2023-06-22T04:07:29;7.82;;;4.13;;
53931;SDS011;39844;52.496;13.482;2023-06-22T04:09:55;5.35;;;4.50;;
53931;SDS011;39844;52.496;13.482;2023-06-22T04:12:20;4.70;;;4.22;;
53931;SDS011;39844;52.496;13.482;2023-06-22T04:14:45;5.03;;;4.05;;
53931;SDS011;39844;52.496;13.482;2023-06-22T04:17:11;5.75;;;3.83;;
53931;SDS011;39844;52.496;13.482;2023-06-22T04:19:36;5.40;;;4.18;;
53931;SDS011;39844;52.496;13.482;2023-06-22T04:22:01;4.65;;;3.88;;
53931;SDS011;39844;52.496;13.482;2023-06-22T04:24:26;5.20;;;3.90;;
53931;SDS011;39844;52.496;13.482;2023-06-22T04:26:52;5.47;;;4.43;;
53931;SDS011;39844;52.496;13.482;2023-06-22T04:29:17;5.22;;;4.30;;
53931;SDS011;39844;52.496;13.482;2023-06-22T04:31:42;5.03;;;3.97;;
53931;SDS011;39844;52.496;13.482;2023-06-22T04:34:08;5.15;;;3.97;;
53931;SDS011;39844;52.496;13.482;2023-06-22T04:36:38;4.22;;;3.70;;
53931;SDS011;39844;52.496;13.482;2023-06-22T04:39:06;4.10;;;3.70;;
53931;SDS011;39844;52.496;13.482;2023-06-22T04:41:32;4.43;;;4.00;;
53931;SDS011;39844;52.496;13.482;2023-06-22T04:43:58;5.38;;;3.85;;
53931;SDS011;39844;52.496;13.482;2023-06-22T04:46:23;4.03;;;3.63;;
53931;SDS011;39844;52.496;13.482;2023-06-22T04:48:48;4.63;;;3.90;;
53931;SDS011;39844;52.496;13.482;2023-06-22T04:51:13;5.57;;;4.25;;
53931;SDS011;39844;52.496;13.482;2023-06-22T04:53:39;7.50;;;4.45;;
53931;SDS011;39844;52.496;13.482;2023-06-22T04:56:04;6.97;;;4.00;;
53931;SDS011;39844;52.496;13.482;2023-06-22T04:58:29;4.97;;;4.45;;
53931;SDS011;39844;52.496;13.482;2023-06-22T05:00:55;4.40;;;3.97;;
53931;SDS011;39844;52.496;13.482;2023-06-22T05:03:22;4.72;;;4.00;;
53931;SDS011;39844;52.496;13.482;2023-06-22T05:05:49;4.35;;;3.95;;
53931;SDS011;39844;52.496;13.482;2023-06-22T05:08:14;4.07;;;3.70;;
53931;SDS011;39844;52.496;13.482;2023-06-22T05:10:41;4.32;;;3.92;;
53931;SDS011;39844;52.496;13.482;2023-06-22T05:13:06;5.18;;;4.10;;
53931;SDS011;39844;52.496;13.482;2023-06-22T05:15:31;3.95;;;3.28;;
53931;SDS011;39844;52.496;13.482;2023-06-22T05:17:57;5.15;;;4.00;;
53931;SDS011;39844;52.496;13.482;2023-06-22T05:20:22;3.92;;;3.47;;
53931;SDS011;39844;52.496;13.482;2023-06-22T05:22:47;3.92;;;3.50;;
53931;SDS011;39844;52.496;13.482;2023-06-22T05:25:13;3.97;;;3.67;;
53931;SDS011;39844;52.496;13.482;2023-06-22T05:27:38;3.72;;;3.42;;
53931;SDS011;39844;52.496;13.482;2023-06-22T05:30:03;4.95;;;3.55;;
53931;SDS011;39844;52.496;13.482;2023-06-22T05:32:29;5.15;;;3.42;;
53931;SDS011;39844;52.496;13.482;2023-06-22T05:34:54;5.20;;;3.33;;
53931;SDS011;39844;52.496;13.482;2023-06-22T05:37:20;3.28;;;3.00;;
53931;SDS011;39844;52.496;13.482;2023-06-22T05:39:45;2.90;;;2.70;;
53931;SDS011;39844;52.496;13.482;2023-06-22T05:42:10;5.25;;;3.00;;
53931;SDS011;39844;52.496;13.482;2023-06-22T05:44:35;3.05;;;2.80;;
53931;SDS011;39844;52.496;13.482;2023-06-22T05:47:01;3.38;;;2.90;;
53931;SDS011;39844;52.496;13.482;2023-06-22T05:49:26;3.40;;;3.10;;
53931;SDS011;39844;52.496;13.482;2023-06-22T05:51:51;4.15;;;3.03;;
53931;SDS011;39844;52.496;13.482;2023-06-22T05:54:16;3.45;;;3.15;;
53931;SDS011;39844;52.496;13.482;2023-06-22T05:56:42;11.13;;;3.40;;
53931;SDS011;39844;52.496;13.482;2023-06-22T05:59:07;3.25;;;2.95;;
53931;SDS011;39844;52.496;13.482;2023-06-22T06:01:32;3.38;;;2.92;;
53931;SDS011;39844;52.496;13.482;2023-06-22T06:03:58;3.60;;;3.00;;
53931;SDS011;39844;52.496;13.482;2023-06-22T06:06:23;3.08;;;2.83;;
53931;SDS011;39844;52.496;13.482;2023-06-22T06:08:48;3.78;;;3.47;;
53931;SDS011;39844;52.496;13.482;2023-06-22T06:11:14;3.13;;;2.92;;
53931;SDS011;39844;52.496;13.482;2023-06-22T06:13:39;3.65;;;3.35;;
53931;SDS011;39844;52.496;13.482;2023-06-22T06:16:05;3.65;;;3.33;;
53931;SDS011;39844;52.496;13.482;2023-06-22T06:18:30;3.30;;;3.05;;
53931;SDS011;39844;52.496;13.482;2023-06-22T06:20:55;5.57;;;3.60;;
53931;SDS011;39844;52.496;13.482;2023-06-22T06:23:21;2.67;;;2.47;;
53931;SDS011;39844;52.496;13.482;2023-06-22T06:25:46;3.72;;;2.80;;
53931;SDS011;39844;52.496;13.482;2023-06-22T06:28:11;3.35;;;3.05;;
53931;SDS011;39844;52.496;13.482;2023-06-22T06:30:36;3.13;;;2.92;;
53931;SDS011;39844;52.496;13.482;2023-06-22T06:33:02;2.75;;;2.55;;
53931;SDS011;39844;52.496;13.482;2023-06-22T06:35:27;2.88;;;2.65;;
53931;SDS011;39844;52.496;13.482;2023-06-22T06:37:53;3.83;;;2.70;;
53931;SDS011;39844;52.496;13.482;2023-06-22T06:40:18;2.70;;;2.50;;
53931;SDS011;39844;52.496;13.482;2023-06-22T06:42:45;2.50;;;2.30;;
53931;SDS011;39844;52.496;13.482;2023-06-22T06:45:12;3.63;;;2.53;;
53931;SDS011;39844;52.496;13.482;2023-06-22T06:47:38;2.65;;;2.45;;
53931;SDS011;39844;52.496;13.482;2023-06-22T06:50:04;3.67;;;2.70;;
53931;SDS011;39844;52.496;13.482;2023-06-22T06:52:29;3.08;;;2.33;;
53931;SDS011;39844;52.496;13.482;2023-06-22T06:54:55;2.53;;;2.15;;
53931;SDS011;39844;52.496;13.482;2023-06-22T06:57:20;2.03;;;1.90;;
53931;SDS011;39844;52.496;13.482;2023-06-22T06:59:46;2.30;;;2.20;;
53931;SDS011;39844;52.496;13.482;2023-06-22T07:02:11;2.20;;;2.10;;
53931;SDS011;39844;52.496;13.482;2023-06-22T07:04:36;3.92;;;2.47;;
53931;SDS011;39844;52.496;13.482;2023-06-22T07:07:02;2.30;;;2.10;;
53931;SDS011;39844;52.496;13.482;2023-06-22T07:09:27;3.38;;;2.45;;
53931;SDS011;39844;52.496;13.482;2023-06-22T07:11:53;2.00;;;1.88;;
53931;SDS011;39844;52.496;13.482;2023-06-22T07:14:19;2.17;;;2.08;;
53931;SDS011;39844;52.496;13.482;2023-06-22T07:16:44;1.92;;;1.83;;
53931;SDS011;39844;52.496;13.482;2023-06-22T07:19:11;2.47;;;2.28;;
53931;SDS011;39844;52.496;13.482;2023-06-22T07:21:37;5.00;;;2.13;;
53931;SDS011;39844;52.496;13.482;2023-06-22T07:24:02;2.97;;;2.40;;
53931;SDS011;39844;52.496;13.482;2023-06-22T07:26:29;2.05;;;1.92;;
53931;SDS011;39844;52.496;13.482;2023-06-22T07:28:54;2.35;;;2.15;;
53931;SDS011;39844;52.496;13.482;2023-06-22T07:31:20;2.67;;;2.47;;
53931;SDS011;39844;52.496;13.482;2023-06-22T07:33:45;2.22;;;2.08;;
53931;SDS011;39844;52.496;13.482;2023-06-22T07:36:10;2.47;;;2.00;;
53931;SDS011;39844;52.496;13.482;2023-06-22T07:38:35;2.97;;;2.33;;
53931;SDS011;39844;52.496;13.482;2023-06-22T07:41:01;1.90;;;1.80;;
53931;SDS011;39844;52.496;13.482;2023-06-22T07:43:27;2.20;;;2.00;;
53931;SDS011;39844;52.496;13.482;2023-06-22T07:45:52;2.00;;;1.80;;
53931;SDS011;39844;52.496;13.482;2023-06-22T07:48:19;2.13;;;1.92;;
53931;SDS011;39844;52.496;13.482;2023-06-22T07:50:45;2.33;;;1.90;;
53931;SDS011;39844;52.496;13.482;2023-06-22T07:53:10;1.60;;;1.50;;
53931;SDS011;39844;52.496;13.482;2023-06-22T07:55:36;1.90;;;1.75;;
53931;SDS011;39844;52.496;13.482;2023-06-22T07:58:01;2.03;;;1.92;;
53931;SDS011;39844;52.496;13.482;2023-06-22T08:00:26;1.88;;;1.77;;
53931;SDS011;39844;52.496;13.482;2023-06-22T08:02:52;1.70;;;1.60;;
53931;SDS011;39844;52.496;13.482;2023-06-22T08:05:17;1.90;;;1.80;;
53931;SDS011;39844;52.496;13.482;2023-06-22T08:07:42;2.08;;;1.95;;
53931;SDS011;39844;52.496;13.482;2023-06-22T08:10:10;2.10;;;1.98;;
53931;SDS011;39844;52.496;13.482;2023-06-22T08:12:36;1.73;;;1.63;;
53931;SDS011;39844;52.496;13.482;2023-06-22T08:15:02;2.20;;;2.00;;
53931;SDS011;39844;52.496;13.482;2023-06-22T08:17:27;2.65;;;1.73;;
53931;SDS011;39844;52.496;13.482;2023-06-22T08:19:55;1.77;;;1.67;;
53931;SDS011;39844;52.496;13.482;2023-06-22T08:22:20;2.45;;;2.00;;
53931;SDS011;39844;52.496;13.482;2023-06-22T08:24:46;2.28;;;2.08;;
53931;SDS011;39844;52.496;13.482;2023-06-22T08:27:11;1.80;;;1.70;;
53931;SDS011;39844;52.496;13.482;2023-06-22T08:29:36;1.52;;;1.52;;
53931;SDS011;39844;52.496;13.482;2023-06-22T08:32:01;4.20;;;2.33;;
53931;SDS011;39844;52.496;13.482;2023-06-22T08:34:27;2.20;;;2.10;;
53931;SDS011;39844;52.496;13.482;2023-06-22T08:36:52;2.25;;;2.08;;
53931;SDS011;39844;52.496;13.482;2023-06-22T08:39:18;2.30;;;2.10;;
53931;SDS011;39844;52.496;13.482;2023-06-22T08:41:44;2.22;;;2.10;;
53931;SDS011;39844;52.496;13.482;2023-06-22T08:44:09;2.13;;;1.98;;
53931;SDS011;39844;52.496;13.482;2023-06-22T08:46:35;2.22;;;2.13;;
53931;SDS011;39844;52.496;13.482;2023-06-22T08:49:00;2.10;;;2.00;;
53931;SDS011;39844;52.496;13.482;2023-06-22T08:51:26;2.97;;;2.40;;
53931;SDS011;39844;52.496;13.482;2023-06-22T08:53:51;4.38;;;2.30;;
53931;SDS011;39844;52.496;13.482;2023-06-22T08:56:16;2.08;;;1.98;;
53931;SDS011;39844;52.496;13.482;2023-06-22T08:58:42;2.20;;;2.03;;
53931;SDS011;39844;52.496;13.482;2023-06-22T09:01:09;2.20;;;2.00;;
53931;SDS011;39844;52.496;13.482;2023-06-22T09:03:34;2.70;;;2.13;;
53931;SDS011;39844;52.496;13.482;2023-06-22T09:06:02;2.33;;;2.17;;
53931;SDS011;39844;52.496;13.482;2023-06-22T09:08:28;2.67;;;2.30;;
53931;SDS011;39844;52.496;13.482;2023-06-22T09:10:53;2.10;;;1.90;;
53931;SDS011;39844;52.496;13.482;2023-06-22T09:13:18;2.22;;;2.00;;
53931;SDS011;39844;52.496;13.482;2023-06-22T09:15:44;1.75;;;1.65;;
53931;SDS011;39844;52.496;13.482;2023-06-22T09:18:13;2.40;;;1.80;;
53931;SDS011;39844;52.496;13.482;2023-06-22T09:20:38;3.05;;;2.20;;
53931;SDS011;39844;52.496;13.482;2023-06-22T09:23:03;2.33;;;2.03;;
53931;SDS011;39844;52.496;13.482;2023-06-22T09:25:29;1.90;;;1.80;;
53931;SDS011;39844;52.496;13.482;2023-06-22T09:27:54;2.28;;;2.08;;
53931;SDS011;39844;52.496;13.482;2023-06-22T09:30:19;2.40;;;2.25;;
53931;SDS011;39844;52.496;13.482;2023-06-22T09:32:45;2.22;;;2.03;;
53931;SDS011;39844;52.496;13.482;2023-06-22T09:35:10;2.13;;;2.00;;
53931;SDS011;39844;52.496;13.482;2023-06-22T09:37:35;2.47;;;2.28;;
53931;SDS011;39844;52.496;13.482;2023-06-22T09:40:01;2.50;;;2.30;;
53931;SDS011;39844;52.496;13.482;2023-06-22T09:42:27;2.72;;;2.28;;
53931;SDS011;39844;52.496;13.482;2023-06-22T09:44:52;2.08;;;1.98;;
53931;SDS011;39844;52.496;13.482;2023-06-22T09:47:17;2.28;;;2.08;;
53931;SDS011;39844;52.496;13.482;2023-06-22T09:49:42;2.10;;;1.95;;
53931;SDS011;39844;52.496;13.482;2023-06-22T09:52:08;2.55;;;2.35;;
53931;SDS011;39844;52.496;13.482;2023-06-22T09:54:33;2.35;;;2.15;;
53931;SDS011;39844;52.496;13.482;2023-06-22T09:56:58;2.08;;;1.95;;
53931;SDS011;39844;52.496;13.482;2023-06-22T09:59:23;2.42;;;2.25;;
53931;SDS011;39844;52.496;13.482;2023-06-22T10:01:49;2.30;;;2.20;;
53931;SDS011;39844;52.496;13.482;2023-06-22T10:04:14;2.15;;;1.95;;
53931;SDS011;39844;52.496;13.482;2023-06-22T10:06:39;3.00;;;2.80;;
53931;SDS011;39844;52.496;13.482;2023-06-22T10:09:05;2.30;;;2.20;;
53931;SDS011;39844;52.496;13.482;2023-06-22T10:11:30;2.53;;;2.33;;
53931;SDS011;39844;52.496;13.482;2023-06-22T10:13:55;2.47;;;2.28;;
53931;SDS011;39844;52.496;13.482;2023-06-22T10:16:20;2.13;;;2.00;;
53931;SDS011;39844;52.496;13.482;2023-06-22T10:18:46;2.33;;;2.13;;
53931;SDS011;39844;52.496;13.482;2023-06-22T10:21:11;2.08;;;1.98;;
53931;SDS011;39844;52.496;13.482;2023-06-22T10:23:36;2.00;;;1.90;;
53931;SDS011;39844;52.496;13.482;2023-06-22T10:26:02;2.33;;;2.20;;
53931;SDS011;39844;52.496;13.482;2023-06-22T10:28:27;2.38;;;2.22;;
53931;SDS011;39844;52.496;13.482;2023-06-22T10:30:52;2.38;;;2.28;;
53931;SDS011;39844;52.496;13.482;2023-06-22T10:33:18;3.35;;;2.33;;
53931;SDS011;39844;52.496;13.482;2023-06-22T10:35:43;3.13;;;1.85;;
53931;SDS011;39844;52.496;13.482;2023-06-22T10:38:08;2.05;;;1.85;;
53931;SDS011;39844;52.496;13.482;2023-06-22T10:40:33;2.15;;;2.05;;
53931;SDS011;39844;52.496;13.482;2023-06-22T10:42:59;3.22;;;2.38;;
53931;SDS011;39844;52.496;13.482;2023-06-22T10:45:24;2.42;;;2.22;;
53931;SDS011;39844;52.496;13.482;2023-06-22T10:47:49;3.35;;;2.17;;
53931;SDS011;39844;52.496;13.482;2023-06-22T10:50:15;2.35;;;1.88;;
53931;SDS011;39844;52.496;13.482;2023-06-22T10:52:40;2.22;;;2.03;;
53931;SDS011;39844;52.496;13.482;2023-06-22T10:55:06;2.80;;;2.00;;
53931;SDS011;39844;52.496;13.482;2023-06-22T10:57:31;2.47;;;2.28;;
53931;SDS011;39844;52.496;13.482;2023-06-22T10:59:57;1.98;;;1.88;;
53931;SDS011;39844;52.496;13.482;2023-06-22T11:02:22;2.88;;;2.33;;
53931;SDS011;39844;52.496;13.482;2023-06-22T11:04:48;2.00;;;1.90;;
53931;SDS011;39844;52.496;13.482;2023-06-22T11:07:14;2.15;;;1.98;;
53931;SDS011;39844;52.496;13.482;2023-06-22T11:09:40;2.22;;;2.10;;
53931;SDS011;39844;52.496;13.482;2023-06-22T11:12:05;1.92;;;1.83;;
53931;SDS011;39844;52.496;13.482;2023-06-22T11:14:32;2.00;;;1.90;;
53931;SDS011;39844;52.496;13.482;2023-06-22T11:16:57;2.20;;;2.10;;
53931;SDS011;39844;52.496;13.482;2023-06-22T11:19:23;1.88;;;1.80;;
53931;SDS011;39844;52.496;13.482;2023-06-22T11:21:48;2.03;;;1.92;;
53931;SDS011;39844;52.496;13.482;2023-06-22T11:24:13;2.35;;;1.98;;
53931;SDS011;39844;52.496;13.482;2023-06-22T11:26:39;2.10;;;2.00;;
53931;SDS011;39844;52.496;13.482;2023-06-22T11:29:04;2.50;;;2.30;;
53931;SDS011;39844;52.496;13.482;2023-06-22T11:31:29;2.35;;;2.10;;
53931;SDS011;39844;52.496;13.482;2023-06-22T11:33:55;2.20;;;2.08;;
53931;SDS011;39844;52.496;13.482;2023-06-22T11:36:20;2.25;;;2.13;;
53931;SDS011;39844;52.496;13.482;2023-06-22T11:38:45;1.88;;;1.77;;
53931;SDS011;39844;52.496;13.482;2023-06-22T11:41:11;2.20;;;2.00;;
53931;SDS011;39844;52.496;13.482;2023-06-22T11:43:36;3.95;;;2.05;;
53931;SDS011;39844;52.496;13.482;2023-06-22T11:46:02;2.10;;;1.90;;
53931;SDS011;39844;52.496;13.482;2023-06-22T11:48:28;2.22;;;2.03;;
53931;SDS011;39844;52.496;13.482;2023-06-22T11:50:54;2.35;;;2.25;;
53931;SDS011;39844;52.496;13.482;2023-06-22T11:53:20;3.47;;;2.40;;
53931;SDS011;39844;52.496;13.482;2023-06-22T11:55:45;2.60;;;2.40;;
53931;SDS011;39844;52.496;13.482;2023-06-22T11:58:11;6.93;;;2.25;;
53931;SDS011;39844;52.496;13.482;2023-06-22T12:00:36;2.17;;;2.08;;
53931;SDS011;39844;52.496;13.482;2023-06-22T12:03:01;2.20;;;2.10;;
53931;SDS011;39844;52.496;13.482;2023-06-22T12:05:27;2.35;;;2.25;;
53931;SDS011;39844;52.496;13.482;2023-06-22T12:07:55;2.40;;;2.20;;
53931;SDS011;39844;52.496;13.482;2023-06-22T12:10:23;2.10;;;2.00;;
53931;SDS011;39844;52.496;13.482;2023-06-22T12:12:48;2.33;;;2.22;;
53931;SDS011;39844;52.496;13.482;2023-06-22T12:15:14;2.40;;;2.20;;
53931;SDS011;39844;52.496;13.482;2023-06-22T12:17:39;2.20;;;2.10;;
53931;SDS011;39844;52.496;13.482;2023-06-22T12:20:05;2.45;;;2.35;;
53931;SDS011;39844;52.496;13.482;2023-06-22T12:22:32;2.60;;;2.40;;
53931;SDS011;39844;52.496;13.482;2023-06-22T12:24:57;2.45;;;2.28;;
53931;SDS011;39844;52.496;13.482;2023-06-22T12:27:23;2.58;;;2.38;;
53931;SDS011;39844;52.496;13.482;2023-06-22T12:29:48;2.78;;;2.58;;
53931;SDS011;39844;52.496;13.482;2023-06-22T12:32:13;3.95;;;2.30;;
53931;SDS011;39844;52.496;13.482;2023-06-22T12:34:42;3.05;;;2.58;;
53931;SDS011;39844;52.496;13.482;2023-06-22T12:37:08;2.50;;;2.30;;
53931;SDS011;39844;52.496;13.482;2023-06-22T12:39:33;2.55;;;2.35;;
53931;SDS011;39844;52.496;13.482;2023-06-22T12:41:59;2.92;;;2.63;;
53931;SDS011;39844;52.496;13.482;2023-06-22T12:44:24;2.83;;;2.63;;
53931;SDS011;39844;52.496;13.482;2023-06-22T12:46:50;2.67;;;2.47;;
53931;SDS011;39844;52.496;13.482;2023-06-22T12:49:15;2.97;;;2.60;;
53931;SDS011;39844;52.496;13.482;2023-06-22T12:51:41;2.67;;;2.53;;
53931;SDS011;39844;52.496;13.482;2023-06-22T12:54:07;2.80;;;2.60;;
53931;SDS011;39844;52.496;13.482;2023-06-22T12:56:32;2.88;;;2.67;;
53931;SDS011;39844;52.496;13.482;2023-06-22T12:58:58;3.50;;;3.20;;
53931;SDS011;39844;52.496;13.482;2023-06-22T13:01:23;2.63;;;2.47;;
53931;SDS011;39844;52.496;13.482;2023-06-22T13:03:48;2.97;;;2.75;;
53931;SDS011;39844;52.496;13.482;2023-06-22T13:06:14;2.65;;;2.45;;
53931;SDS011;39844;52.496;13.482;2023-06-22T13:08:39;2.53;;;2.33;;
53931;SDS011;39844;52.496;13.482;2023-06-22T13:11:05;3.08;;;2.65;;
53931;SDS011;39844;52.496;13.482;2023-06-22T13:13:30;2.40;;;2.20;;
53931;SDS011;39844;52.496;13.482;2023-06-22T13:15:56;2.65;;;2.47;;
53931;SDS011;39844;52.496;13.482;2023-06-22T13:18:21;4.35;;;2.67;;
53931;SDS011;39844;52.496;13.482;2023-06-22T13:20:46;2.70;;;2.53;;
53931;SDS011;39844;52.496;13.482;2023-06-22T13:23:12;3.13;;;2.40;;
53931;SDS011;39844;52.496;13.482;2023-06-22T13:25:37;2.85;;;2.50;;
53931;SDS011;39844;52.496;13.482;2023-06-22T13:28:02;3.08;;;2.80;;
53931;SDS011;39844;52.496;13.482;2023-06-22T13:30:28;3.20;;;3.00;;
53931;SDS011;39844;52.496;13.482;2023-06-22T13:32:53;2.55;;;2.38;;
53931;SDS011;39844;52.496;13.482;2023-06-22T13:35:19;4.97;;;2.83;;
53931;SDS011;39844;52.496;13.482;2023-06-22T13:37:44;2.92;;;2.72;;
53931;SDS011;39844;52.496;13.482;2023-06-22T13:40:09;3.53;;;2.63;;
53931;SDS011;39844;52.496;13.482;2023-06-22T13:42:35;2.63;;;2.42;;
53931;SDS011;39844;52.496;13.482;2023-06-22T13:45:00;2.50;;;2.40;;
53931;SDS011;39844;52.496;13.482;2023-06-22T13:47:26;2.38;;;2.28;;
53931;SDS011;39844;52.496;13.482;2023-06-22T13:49:51;3.20;;;2.90;;
53931;SDS011;39844;52.496;13.482;2023-06-22T13:52:17;2.92;;;2.72;;
53931;SDS011;39844;52.496;13.482;2023-06-22T13:54:42;2.60;;;2.40;;
53931;SDS011;39844;52.496;13.482;2023-06-22T13:57:07;3.38;;;2.75;;
53931;SDS011;39844;52.496;13.482;2023-06-22T13:59:33;2.67;;;2.47;;
53931;SDS011;39844;52.496;13.482;2023-06-22T14:01:58;2.72;;;2.50;;
53931;SDS011;39844;52.496;13.482;2023-06-22T14:04:23;3.95;;;2.72;;
53931;SDS011;39844;52.496;13.482;2023-06-22T14:06:49;2.65;;;2.53;;
53931;SDS011;39844;52.496;13.482;2023-06-22T14:09:14;2.92;;;2.72;;
53931;SDS011;39844;52.496;13.482;2023-06-22T14:11:40;3.10;;;2.47;;
53931;SDS011;39844;52.496;13.482;2023-06-22T14:14:05;5.38;;;2.60;;
53931;SDS011;39844;52.496;13.482;2023-06-22T14:16:30;2.92;;;2.72;;
53931;SDS011;39844;52.496;13.482;2023-06-22T14:18:55;2.80;;;2.60;;
53931;SDS011;39844;52.496;13.482;2023-06-22T14:21:21;2.60;;;2.50;;
53931;SDS011;39844;52.496;13.482;2023-06-22T14:23:46;2.70;;;2.50;;
53931;SDS011;39844;52.496;13.482;2023-06-22T14:26:11;2.80;;;2.60;;
53931;SDS011;39844;52.496;13.482;2023-06-22T14:28:37;2.67;;;2.47;;
53931;SDS011;39844;52.496;13.482;2023-06-22T14:31:02;2.80;;;2.60;;